Terminal Aerodrome Forecast
Issued by NWS

Home | Current Version | Previous Version | Text Only | Print | Product List | Glossary On
Versions: 1 2 3 4 5 6 7 8 9 10 11 12 13 14 15 16 17 18 19 20 21 22 23 24 25
000
FTUS41 KBUF 301731
TAFIAG
TAF
KIAG 301731Z 3018/3118 23019G28KT P6SM SCT050 SCT150
     FM302300 23009KT P6SM BKN050
     FM310200 26005KT 4SM SHRA VCTS BKN035CB
     FM310500 01014KT 4SM -SHRA BR OVC007
     FM310900 04015KT 4SM -SHRA BR OVC007
     FM311600 05016KT 4SM RA OVC012=

USA.gov is the U.S. government's official web portal to all federal, state and local government web resources and services.